Time;durP1;ratioP1;P1;durP2;ratioP2;P2;SDS_P1;SDS_P2;PMS_P1;PMS_P2;Temp;Humidity;BMP_temperature;BMP_pressure;BME280_temperature;BME280_humidity;BME280_pressure;Samples;Min_cycle;Max_cycle;Signal;HPM_P1;HPM_P2
2024/03/19 00:01:14;;;;;;;11.27;6.55;;;;;;;;;;6162165;28;20066;-80
2024/03/19 00:04:18;;;;;;;8.80;5.80;;;;;;;;;;6154868;28;20101;-81
2024/03/19 00:07:20;;;;;;;10.18;6.55;;;;;;;;;;6166801;28;20035;-80
2024/03/19 00:10:21;;;;;;;10.52;5.38;;;;;;;;;;6160218;28;20607;-80
2024/03/19 00:13:25;;;;;;;9.80;5.75;;;;;;;;;;6148498;28;20051;-80
2024/03/19 00:16:26;;;;;;;9.20;5.13;;;;;;;;;;6132001;28;20055;-81
2024/03/19 00:19:28;;;;;;;9.23;5.97;;;;;;;;;;6163107;28;20042;-81
2024/03/19 00:22:29;;;;;;;11.88;6.70;;;;;;;;;;6150430;28;20497;-81
2024/03/19 00:25:31;;;;;;;9.75;6.22;;;;;;;;;;6170486;28;20042;-81
2024/03/19 00:28:33;;;;;;;7.53;4.70;;;;;;;;;;6175252;28;20058;-81
2024/03/19 00:31:35;;;;;;;9.82;5.38;;;;;;;;;;6181724;28;20042;-79
2024/03/19 00:34:36;;;;;;;8.55;5.15;;;;;;;;;;6152860;28;20047;-81
2024/03/19 00:37:39;;;;;;;7.82;5.40;;;;;;;;;;6141910;28;20059;-81
2024/03/19 00:40:41;;;;;;;11.20;7.97;;;;;;;;;;6158871;28;20047;-81
2024/03/19 00:43:42;;;;;;;10.13;6.00;;;;;;;;;;6132267;28;20777;-80
2024/03/19 00:46:44;;;;;;;7.70;4.97;;;;;;;;;;6161440;28;20062;-81
2024/03/19 00:49:45;;;;;;;7.72;4.95;;;;;;;;;;6165684;28;20736;-81
2024/03/19 00:52:48;;;;;;;8.18;5.35;;;;;;;;;;6148469;28;20043;-81
2024/03/19 00:55:50;;;;;;;8.95;5.65;;;;;;;;;;6116184;28;20065;-81
2024/03/19 00:58:51;;;;;;;8.90;4.63;;;;;;;;;;6146342;28;20054;-81
2024/03/19 01:01:52;;;;;;;9.07;5.53;;;;;;;;;;6145941;28;20050;-81
2024/03/19 01:04:53;;;;;;;7.35;4.28;;;;;;;;;;6129348;28;20051;-81
2024/03/19 01:07:56;;;;;;;9.10;5.47;;;;;;;;;;6132183;28;20047;-81
2024/03/19 01:11:03;;;;;;;10.82;6.13;;;;;;;;;;6160372;28;20058;-81
2024/03/19 01:14:06;;;;;;;9.25;5.72;;;;;;;;;;6163139;28;20094;-81
2024/03/19 01:17:07;;;;;;;8.95;5.70;;;;;;;;;;6159349;28;20046;-81
2024/03/19 01:20:10;;;;;;;8.63;4.53;;;;;;;;;;6141940;28;20050;-81
2024/03/19 01:23:12;;;;;;;9.05;6.00;;;;;;;;;;6157047;28;20519;-81
2024/03/19 01:26:13;;;;;;;7.60;4.70;;;;;;;;;;6145703;28;20552;-81
2024/03/19 01:29:14;;;;;;;7.15;4.43;;;;;;;;;;6162494;28;20043;-81
2024/03/19 01:32:16;;;;;;;7.53;5.07;;;;;;;;;;6159664;28;20042;-81
2024/03/19 01:35:17;;;;;;;7.95;5.40;;;;;;;;;;6107068;28;20055;-81
2024/03/19 01:38:20;;;;;;;8.55;5.15;;;;;;;;;;6149486;28;20054;-81
2024/03/19 01:41:21;;;;;;;7.78;3.92;;;;;;;;;;6146141;28;20058;-82
2024/03/19 01:44:23;;;;;;;6.00;3.80;;;;;;;;;;6140502;28;20074;-81
2024/03/19 01:47:24;;;;;;;7.78;4.25;;;;;;;;;;6128135;28;20051;-81
2024/03/19 01:50:26;;;;;;;9.48;6.40;;;;;;;;;;6143334;28;20093;-81
2024/03/19 01:53:28;;;;;;;10.15;6.45;;;;;;;;;;6158587;28;20602;-81
2024/03/19 01:56:31;;;;;;;8.70;5.32;;;;;;;;;;6138352;28;20085;-81
2024/03/19 01:59:35;;;;;;;9.20;6.35;;;;;;;;;;6158654;28;20043;-81
2024/03/19 02:02:36;;;;;;;11.32;6.75;;;;;;;;;;6158199;28;20054;-81
2024/03/19 02:05:39;;;;;;;12.32;8.15;;;;;;;;;;6128089;28;20057;-81
2024/03/19 02:09:06;;;;;;;12.88;8.45;;;;;;;;;;6158434;28;20743;-81
2024/03/19 02:12:08;;;;;;;11.90;7.00;;;;;;;;;;6163639;28;20520;-81
2024/03/19 02:15:10;;;;;;;12.25;7.80;;;;;;;;;;6163061;28;20046;-81
2024/03/19 02:18:13;;;;;;;9.63;7.03;;;;;;;;;;6125672;28;20062;-80
2024/03/19 02:21:16;;;;;;;13.13;8.48;;;;;;;;;;6147507;28;20059;-81
2024/03/19 02:24:17;;;;;;;13.23;7.88;;;;;;;;;;6154201;28;20440;-81
2024/03/19 02:27:27;;;;;;;13.23;8.02;;;;;;;;;;6134156;28;20563;-81
2024/03/19 02:30:38;;;;;;;16.20;8.30;;;;;;;;;;6192660;28;20031;-81
2024/03/19 02:33:41;;;;;;;12.93;7.75;;;;;;;;;;6173666;28;20109;-81
2024/03/19 02:36:44;;;;;;;14.48;8.82;;;;;;;;;;6163837;28;20137;-80
2024/03/19 02:39:46;;;;;;;11.32;7.47;;;;;;;;;;6141855;28;20058;-81
2024/03/19 02:42:47;;;;;;;15.10;8.60;;;;;;;;;;6128345;28;20123;-80
2024/03/19 02:45:48;;;;;;;13.27;7.75;;;;;;;;;;6143077;28;20882;-81
2024/03/19 02:48:50;;;;;;;12.00;7.57;;;;;;;;;;6130627;28;20047;-81
2024/03/19 02:51:51;;;;;;;14.38;7.45;;;;;;;;;;6142797;28;20046;-80
2024/03/19 02:54:52;;;;;;;12.20;9.95;;;;;;;;;;6158023;28;20171;-80
2024/03/19 02:57:54;;;;;;;12.70;7.60;;;;;;;;;;6130023;28;20767;-81
2024/03/19 03:00:56;;;;;;;12.02;8.18;;;;;;;;;;6157730;28;20126;-81
2024/03/19 03:03:58;;;;;;;14.93;8.85;;;;;;;;;;6137741;28;20043;-81
2024/03/19 03:06:59;;;;;;;14.75;9.13;;;;;;;;;;6160235;28;20552;-81
2024/03/19 03:10:03;;;;;;;14.98;8.70;;;;;;;;;;6157398;28;20051;-81
2024/03/19 03:13:04;;;;;;;13.77;9.93;;;;;;;;;;6139862;28;20553;-79
2024/03/19 03:16:06;;;;;;;15.77;9.23;;;;;;;;;;6130436;28;20106;-80
2024/03/19 03:19:08;;;;;;;17.13;10.15;;;;;;;;;;6161129;28;20050;-79
2024/03/19 03:22:09;;;;;;;15.02;9.35;;;;;;;;;;6130573;28;20283;-80
2024/03/19 03:25:15;;;;;;;13.60;9.95;;;;;;;;;;6143025;28;20711;-80
2024/03/19 03:28:17;;;;;;;15.10;9.98;;;;;;;;;;6160034;28;20057;-80
2024/03/19 03:31:19;;;;;;;14.68;9.77;;;;;;;;;;6161841;28;20055;-80
2024/03/19 03:34:21;;;;;;;13.70;8.93;;;;;;;;;;6161634;28;20063;-81
2024/03/19 03:37:22;;;;;;;13.13;10.32;;;;;;;;;;6161678;28;20109;-80
2024/03/19 03:40:24;;;;;;;11.60;7.80;;;;;;;;;;6145062;28;20138;-80
2024/03/19 03:43:25;;;;;;;14.25;8.60;;;;;;;;;;6140740;28;20049;-81
2024/03/19 03:46:28;;;;;;;14.60;8.25;;;;;;;;;;6162259;28;20517;-81
2024/03/19 03:49:29;;;;;;;13.48;8.45;;;;;;;;;;6115739;28;20100;-80
2024/03/19 03:52:32;;;;;;;16.17;9.48;;;;;;;;;;6163004;28;20174;-81
2024/03/19 03:55:33;;;;;;;14.50;8.90;;;;;;;;;;6117249;28;20054;-81
2024/03/19 03:58:36;;;;;;;15.25;8.57;;;;;;;;;;6165805;28;20493;-80
2024/03/19 04:01:39;;;;;;;13.48;7.55;;;;;;;;;;6148515;28;20058;-80
2024/03/19 04:04:40;;;;;;;14.32;8.20;;;;;;;;;;6163165;28;20137;-79
2024/03/19 04:07:43;;;;;;;10.90;7.40;;;;;;;;;;6130079;28;20046;-80
2024/03/19 04:10:45;;;;;;;13.43;7.65;;;;;;;;;;6135214;28;20050;-80
2024/03/19 04:13:46;;;;;;;13.77;7.97;;;;;;;;;;6113092;28;20208;-80
2024/03/19 04:16:48;;;;;;;12.55;6.30;;;;;;;;;;6161703;28;20061;-79
2024/03/19 04:19:49;;;;;;;12.90;6.57;;;;;;;;;;6161390;28;20051;-80
2024/03/19 04:22:50;;;;;;;12.70;7.80;;;;;;;;;;6160147;28;20791;-81
2024/03/19 04:25:52;;;;;;;10.40;6.63;;;;;;;;;;6159246;28;20226;-80
2024/03/19 04:28:54;;;;;;;11.48;7.30;;;;;;;;;;6162448;28;20047;-80
2024/03/19 04:31:56;;;;;;;10.38;7.00;;;;;;;;;;6148123;28;20132;-80
2024/03/19 04:35:40;;;;;;;10.10;7.60;;;;;;;;;;6172069;28;20050;-79
2024/03/19 04:38:51;;;;;;;14.30;8.73;;;;;;;;;;6149045;28;20129;-79
2024/03/19 04:42:30;;;;;;;20.30;11.55;;;;;;;;;;6156528;28;20049;-79
2024/03/19 04:45:31;;;;;;;13.25;8.50;;;;;;;;;;6170677;28;20137;-80
2024/03/19 04:48:32;;;;;;;16.48;8.13;;;;;;;;;;6144106;28;20058;-81
2024/03/19 04:51:33;;;;;;;11.10;7.65;;;;;;;;;;6176247;28;20050;-80
2024/03/19 04:54:35;;;;;;;14.25;8.85;;;;;;;;;;6191784;28;20046;-80
2024/03/19 04:57:36;;;;;;;26.77;16.13;;;;;;;;;;6177451;28;20059;-80
2024/03/19 05:00:38;;;;;;;23.20;11.40;;;;;;;;;;6182211;28;20076;-80
2024/03/19 05:03:40;;;;;;;18.50;11.73;;;;;;;;;;6171358;28;20051;-80
2024/03/19 05:06:42;;;;;;;12.68;8.63;;;;;;;;;;6137021;28;20094;-81
2024/03/19 05:09:43;;;;;;;16.27;10.23;;;;;;;;;;6161252;28;20071;-82
2024/03/19 05:12:46;;;;;;;15.65;10.75;;;;;;;;;;6161030;28;20038;-80
2024/03/19 05:15:47;;;;;;;13.98;8.80;;;;;;;;;;6167375;28;20069;-80
2024/03/19 05:18:49;;;;;;;14.15;9.10;;;;;;;;;;6165627;28;20501;-80
2024/03/19 05:21:50;;;;;;;15.63;8.60;;;;;;;;;;6168464;28;20042;-79
2024/03/19 05:24:52;;;;;;;14.80;9.70;;;;;;;;;;6158971;28;20054;-80
2024/03/19 05:27:54;;;;;;;14.23;9.45;;;;;;;;;;6145828;28;20046;-81
2024/03/19 05:30:56;;;;;;;18.13;10.20;;;;;;;;;;6128982;28;20697;-81
2024/03/19 05:33:57;;;;;;;12.35;7.38;;;;;;;;;;6163726;28;20050;-79
2024/03/19 05:36:58;;;;;;;12.25;7.70;;;;;;;;;;6160273;28;20050;-80
2024/03/19 05:40:01;;;;;;;12.23;7.90;;;;;;;;;;6148877;28;20054;-80
2024/03/19 05:43:06;;;;;;;13.13;6.30;;;;;;;;;;6166827;28;20049;-80
2024/03/19 05:46:08;;;;;;;9.23;6.10;;;;;;;;;;6152828;28;20054;-80
2024/03/19 05:49:09;;;;;;;11.15;7.28;;;;;;;;;;6139715;28;20623;-82
2024/03/19 05:52:11;;;;;;;13.32;6.78;;;;;;;;;;6162253;28;20054;-83
2024/03/19 05:55:13;;;;;;;15.63;8.02;;;;;;;;;;6145616;28;20056;-81
2024/03/19 05:58:14;;;;;;;11.57;8.55;;;;;;;;;;6158011;28;20050;-81
2024/03/19 06:01:18;;;;;;;13.52;8.10;;;;;;;;;;6155168;28;20046;-81
2024/03/19 06:04:20;;;;;;;16.90;10.10;;;;;;;;;;6161471;28;20137;-81
2024/03/19 06:07:22;;;;;;;13.43;9.48;;;;;;;;;;6158255;28;20054;-81
2024/03/19 06:10:23;;;;;;;15.73;8.27;;;;;;;;;;6144582;28;20050;-81
2024/03/19 06:13:27;;;;;;;13.25;10.13;;;;;;;;;;6149432;28;20058;-80
2024/03/19 06:16:31;;;;;;;12.43;7.13;;;;;;;;;;6158031;28;20105;-80
2024/03/19 06:19:34;;;;;;;10.57;5.88;;;;;;;;;;6142566;28;20050;-80
2024/03/19 06:22:35;;;;;;;11.55;7.47;;;;;;;;;;6141448;28;20825;-81
2024/03/19 06:25:39;;;;;;;15.95;8.70;;;;;;;;;;6149100;28;20090;-81
2024/03/19 06:28:41;;;;;;;13.13;9.38;;;;;;;;;;6132208;28;20061;-81
2024/03/19 06:31:42;;;;;;;12.75;7.28;;;;;;;;;;6138876;28;20051;-81
2024/03/19 06:34:44;;;;;;;10.80;6.35;;;;;;;;;;6147446;28;20849;-81
2024/03/19 06:37:47;;;;;;;14.45;7.38;;;;;;;;;;6145093;28;20058;-81
2024/03/19 06:40:48;;;;;;;17.52;10.30;;;;;;;;;;6140722;28;20719;-81
2024/03/19 06:43:49;;;;;;;12.27;9.45;;;;;;;;;;6127847;28;20062;-81
2024/03/19 06:46:50;;;;;;;10.52;6.53;;;;;;;;;;6143245;28;20053;-81
2024/03/19 06:49:52;;;;;;;10.45;6.40;;;;;;;;;;6144864;28;20051;-81
2024/03/19 06:52:53;;;;;;;11.18;6.03;;;;;;;;;;6149182;28;20050;-80
2024/03/19 06:55:55;;;;;;;9.93;6.28;;;;;;;;;;6162842;28;20421;-81
2024/03/19 06:58:56;;;;;;;10.63;7.22;;;;;;;;;;6164947;28;20054;-81
2024/03/19 07:01:58;;;;;;;9.23;6.43;;;;;;;;;;6127712;28;20061;-81
2024/03/19 07:04:59;;;;;;;11.45;4.80;;;;;;;;;;6166196;28;20087;-80
2024/03/19 07:08:01;;;;;;;9.65;5.75;;;;;;;;;;6163820;28;20038;-81
2024/03/19 07:11:03;;;;;;;30.40;14.50;;;;;;;;;;6146670;28;20055;-80
2024/03/19 07:14:07;;;;;;;8.02;4.70;;;;;;;;;;6147323;28;20043;-81
2024/03/19 07:17:09;;;;;;;12.48;5.38;;;;;;;;;;6148143;28;20047;-81
2024/03/19 07:20:48;;;;;;;11.07;5.28;;;;;;;;;;6164578;28;20588;-82
2024/03/19 07:23:49;;;;;;;9.93;6.50;;;;;;;;;;6180184;28;20046;-83
2024/03/19 07:26:51;;;;;;;16.23;8.90;;;;;;;;;;6181593;28;20050;-82
2024/03/19 07:30:00;;;;;;;11.77;7.82;;;;;;;;;;6168721;28;20956;-81
2024/03/19 07:33:03;;;;;;;11.90;8.15;;;;;;;;;;6160712;28;20057;-81
2024/03/19 07:36:05;;;;;;;13.18;6.35;;;;;;;;;;6159220;28;20058;-81
2024/03/19 07:39:13;;;;;;;11.30;7.85;;;;;;;;;;6160706;28;20125;-81
2024/03/19 07:42:15;;;;;;;10.32;6.28;;;;;;;;;;6160466;28;20925;-81
2024/03/19 07:45:17;;;;;;;9.77;7.50;;;;;;;;;;6159658;28;20452;-81
2024/03/19 07:48:20;;;;;;;8.07;5.20;;;;;;;;;;6128291;28;20444;-81
2024/03/19 07:51:24;;;;;;;20.83;14.27;;;;;;;;;;6165012;28;20055;-80
2024/03/19 07:54:28;;;;;;;4.97;3.65;;;;;;;;;;6157483;28;20073;-81
2024/03/19 07:57:29;;;;;;;7.40;5.90;;;;;;;;;;6160999;28;20050;-80
2024/03/19 08:00:31;;;;;;;7.03;4.15;;;;;;;;;;6162167;28;20051;-81
2024/03/19 08:03:34;;;;;;;6.93;4.38;;;;;;;;;;6162399;28;20133;-82
2024/03/19 08:06:35;;;;;;;9.25;4.88;;;;;;;;;;6160899;28;20054;-82
2024/03/19 08:09:37;;;;;;;15.50;7.93;;;;;;;;;;6160844;28;20057;-83
2024/03/19 08:12:39;;;;;;;14.45;7.78;;;;;;;;;;6142692;28;20125;-82
2024/03/19 08:15:42;;;;;;;9.52;5.50;;;;;;;;;;6157675;28;20058;-82
2024/03/19 08:18:44;;;;;;;15.23;8.18;;;;;;;;;;6129731;28;20125;-82
2024/03/19 08:21:45;;;;;;;28.05;19.02;;;;;;;;;;6131266;28;20047;-82
2024/03/19 08:24:49;;;;;;;22.00;16.60;;;;;;;;;;6164087;28;20447;-82
2024/03/19 08:27:52;;;;;;;16.27;12.43;;;;;;;;;;6148646;28;20065;-81
2024/03/19 08:30:53;;;;;;;11.90;7.07;;;;;;;;;;6144858;28;20105;-83
2024/03/19 08:33:54;;;;;;;11.35;7.05;;;;;;;;;;6114634;28;20437;-83
2024/03/19 08:36:55;;;;;;;9.35;6.97;;;;;;;;;;6164308;28;20618;-82
2024/03/19 08:39:57;;;;;;;8.15;5.05;;;;;;;;;;6162416;28;20054;-82
2024/03/19 08:42:59;;;;;;;6.18;4.20;;;;;;;;;;6138187;28;20811;-83
2024/03/19 08:46:01;;;;;;;8.85;5.15;;;;;;;;;;6133862;28;20646;-82
2024/03/19 08:49:02;;;;;;;9.73;5.13;;;;;;;;;;6147461;28;20042;-82
2024/03/19 08:52:05;;;;;;;7.25;4.30;;;;;;;;;;6149698;28;20051;-82
2024/03/19 08:55:09;;;;;;;8.05;5.07;;;;;;;;;;6163238;28;20118;-82
2024/03/19 08:58:11;;;;;;;8.43;4.63;;;;;;;;;;6156889;28;20492;-82
2024/03/19 09:01:14;;;;;;;8.50;5.78;;;;;;;;;;6162051;28;20051;-82
2024/03/19 09:04:16;;;;;;;10.50;5.60;;;;;;;;;;6162015;28;20153;-83
2024/03/19 09:07:17;;;;;;;9.20;6.82;;;;;;;;;;6158386;28;20053;-82
2024/03/19 09:10:19;;;;;;;6.18;4.88;;;;;;;;;;6134062;28;20058;-83
2024/03/19 09:13:23;;;;;;;6.07;3.88;;;;;;;;;;6146853;28;20822;-82
2024/03/19 09:16:25;;;;;;;5.72;3.92;;;;;;;;;;6141237;28;20054;-82
2024/03/19 09:19:37;;;;;;;14.98;9.32;;;;;;;;;;6129254;28;20674;-81
2024/03/19 09:22:40;;;;;;;5.97;3.67;;;;;;;;;;6144021;28;20639;-82
2024/03/19 09:25:42;;;;;;;10.35;5.75;;;;;;;;;;6146718;28;20186;-82
2024/03/19 09:28:43;;;;;;;7.57;6.70;;;;;;;;;;6114942;28;20070;-82
2024/03/19 09:31:44;;;;;;;6.03;3.88;;;;;;;;;;6162759;28;20137;-81
2024/03/19 09:35:20;;;;;;;7.55;3.03;;;;;;;;;;6168295;28;20402;-83
2024/03/19 09:38:22;;;;;;;12.05;6.75;;;;;;;;;;6199993;28;20276;-83
2024/03/19 09:41:24;;;;;;;9.88;4.15;;;;;;;;;;6187705;28;20047;-81
2024/03/19 09:44:26;;;;;;;9.52;6.43;;;;;;;;;;6147383;28;20053;-83
2024/03/19 09:47:29;;;;;;;8.45;5.95;;;;;;;;;;6157786;28;20042;-83
2024/03/19 09:50:30;;;;;;;16.85;9.25;;;;;;;;;;6145364;28;20042;-83
2024/03/19 09:53:36;;;;;;;6.68;4.70;;;;;;;;;;6152028;28;20046;-81
2024/03/19 09:56:38;;;;;;;16.10;9.05;;;;;;;;;;6146794;28;20058;-82
2024/03/19 09:59:39;;;;;;;21.50;10.40;;;;;;;;;;6160208;28;20074;-82
2024/03/19 10:02:42;;;;;;;18.40;11.38;;;;;;;;;;6134144;28;20456;-81
2024/03/19 10:05:43;;;;;;;22.63;11.65;;;;;;;;;;6154035;28;20050;-81
2024/03/19 10:08:49;;;;;;;10.48;7.03;;;;;;;;;;6176430;28;20081;-83
2024/03/19 10:11:56;;;;;;;17.73;8.63;;;;;;;;;;6150513;28;20133;-81
2024/03/19 10:15:08;;;;;;;13.60;7.05;;;;;;;;;;6151407;28;20058;-81
2024/03/19 10:18:12;;;;;;;12.75;8.07;;;;;;;;;;6144820;28;20067;-82
2024/03/19 10:21:14;;;;;;;11.82;6.95;;;;;;;;;;6179471;28;20052;-82
2024/03/19 10:24:16;;;;;;;15.63;9.35;;;;;;;;;;6177951;28;20065;-81
2024/03/19 10:27:19;;;;;;;9.75;5.88;;;;;;;;;;6145270;28;20054;-81
2024/03/19 10:30:21;;;;;;;7.25;5.15;;;;;;;;;;6152518;28;20043;-81
2024/03/19 10:33:29;;;;;;;9.23;5.60;;;;;;;;;;6163371;28;20043;-80
2024/03/19 10:37:07;;;;;;;6.10;4.25;;;;;;;;;;6164107;28;20038;-80
2024/03/19 10:40:12;;;;;;;9.95;5.32;;;;;;;;;;6193627;28;20516;-81
2024/03/19 10:43:18;;;;;;;8.25;5.53;;;;;;;;;;6167792;28;20043;-81
2024/03/19 10:46:20;;;;;;;11.23;5.65;;;;;;;;;;6137694;28;20051;-82
2024/03/19 10:49:22;;;;;;;7.15;5.13;;;;;;;;;;6152010;28;20035;-83
2024/03/19 10:52:26;;;;;;;5.88;4.03;;;;;;;;;;6163589;28;20035;-80
2024/03/19 10:55:32;;;;;;;6.45;3.53;;;;;;;;;;6161477;28;20043;-82
2024/03/19 10:58:40;;;;;;;9.55;4.40;;;;;;;;;;6166050;28;20050;-81
2024/03/19 11:01:50;;;;;;;6.22;3.58;;;;;;;;;;6152865;28;20054;-82
2024/03/19 11:04:57;;;;;;;6.95;3.75;;;;;;;;;;6164886;28;20046;-81
2024/03/19 11:07:59;;;;;;;5.72;3.78;;;;;;;;;;6136351;28;20055;-83
2024/03/19 11:11:08;;;;;;;7.18;4.20;;;;;;;;;;6149559;28;20058;-84
2024/03/19 11:14:16;;;;;;;10.60;5.22;;;;;;;;;;6133743;28;20635;-83
2024/03/19 11:17:17;;;;;;;14.60;8.20;;;;;;;;;;6159102;28;20135;-83
2024/03/19 11:20:19;;;;;;;13.55;8.43;;;;;;;;;;6145528;28;20054;-82
2024/03/19 11:23:30;;;;;;;10.57;6.07;;;;;;;;;;6128712;28;20047;-83
2024/03/19 11:26:32;;;;;;;6.43;4.80;;;;;;;;;;6158513;28;20047;-82
2024/03/19 11:29:37;;;;;;;8.07;4.50;;;;;;;;;;6126626;28;21045;-83
2024/03/19 11:32:40;;;;;;;6.88;4.47;;;;;;;;;;6139726;28;20057;-82
2024/03/19 11:35:45;;;;;;;6.00;4.00;;;;;;;;;;6144609;28;20636;-82
2024/03/19 11:38:48;;;;;;;9.13;5.07;;;;;;;;;;6162776;28;20046;-83
2024/03/19 11:41:49;;;;;;;5.50;4.00;;;;;;;;;;6163270;28;20128;-83
2024/03/19 11:44:52;;;;;;;13.88;7.25;;;;;;;;;;6147989;28;20105;-82
2024/03/19 11:47:56;;;;;;;13.90;5.97;;;;;;;;;;6141064;28;20054;-82
2024/03/19 11:50:58;;;;;;;7.47;5.50;;;;;;;;;;6142121;28;20551;-82
2024/03/19 11:54:02;;;;;;;6.68;4.20;;;;;;;;;;6165423;28;20058;-82
2024/03/19 11:57:04;;;;;;;5.13;2.95;;;;;;;;;;6154143;28;20047;-83
2024/03/19 12:00:12;;;;;;;9.57;5.03;;;;;;;;;;6203086;28;20047;-82
2024/03/19 12:03:15;;;;;;;6.80;4.63;;;;;;;;;;6206043;28;20113;-83
2024/03/19 12:06:17;;;;;;;9.52;4.38;;;;;;;;;;6151291;28;20054;-82
2024/03/19 12:09:33;;;;;;;6.75;4.00;;;;;;;;;;6142674;28;20055;-83
2024/03/19 12:12:35;;;;;;;13.32;7.30;;;;;;;;;;6146728;28;20047;-82
2024/03/19 12:15:38;;;;;;;9.60;5.32;;;;;;;;;;6162293;28;20058;-82
2024/03/19 12:18:43;;;;;;;9.52;4.97;;;;;;;;;;6161263;28;20165;-82
2024/03/19 12:21:49;;;;;;;8.93;5.32;;;;;;;;;;6144320;28;20096;-82
2024/03/19 12:24:51;;;;;;;7.22;4.13;;;;;;;;;;6150609;28;20769;-82
2024/03/19 12:27:53;;;;;;;5.68;3.70;;;;;;;;;;6175588;28;20528;-81
2024/03/19 12:30:57;;;;;;;6.05;4.50;;;;;;;;;;6163321;28;20046;-82
2024/03/19 12:34:16;;;;;;;10.23;4.57;;;;;;;;;;6162194;28;20039;-82
2024/03/19 12:37:20;;;;;;;7.53;6.28;;;;;;;;;;6129970;28;20042;-81
2024/03/19 12:40:23;;;;;;;54.38;20.10;;;;;;;;;;6162144;28;20137;-82
2024/03/19 12:43:25;;;;;;;8.57;3.80;;;;;;;;;;6147375;28;20051;-82
2024/03/19 12:46:28;;;;;;;5.88;4.40;;;;;;;;;;6145879;28;20615;-82
2024/03/19 12:49:31;;;;;;;6.90;3.97;;;;;;;;;;6146217;28;20039;-82
2024/03/19 12:52:34;;;;;;;8.98;4.82;;;;;;;;;;6145101;28;20647;-82
2024/03/19 12:55:35;;;;;;;6.35;3.58;;;;;;;;;;6129316;28;20101;-82
2024/03/19 12:58:37;;;;;;;5.20;3.25;;;;;;;;;;6143752;28;20058;-81
2024/03/19 13:01:38;;;;;;;8.65;3.55;;;;;;;;;;6133789;28;20050;-82
2024/03/19 13:04:40;;;;;;;7.63;3.47;;;;;;;;;;6136855;28;20066;-81
2024/03/19 13:07:43;;;;;;;7.57;3.85;;;;;;;;;;6143405;28;20822;-82
2024/03/19 13:10:44;;;;;;;6.47;4.78;;;;;;;;;;6127421;28;20047;-82
2024/03/19 13:13:47;;;;;;;11.80;6.18;;;;;;;;;;6156786;28;20071;-81
2024/03/19 13:16:48;;;;;;;10.20;4.00;;;;;;;;;;6158008;28;20049;-82
2024/03/19 13:19:49;;;;;;;7.40;5.07;;;;;;;;;;6144695;28;20692;-82
2024/03/19 13:22:51;;;;;;;12.27;6.00;;;;;;;;;;6153840;28;20058;-82
2024/03/19 13:25:52;;;;;;;5.63;3.75;;;;;;;;;;6126525;28;20058;-82
2024/03/19 13:28:53;;;;;;;6.88;3.78;;;;;;;;;;6142665;28;20879;-81
2024/03/19 13:31:57;;;;;;;5.97;3.90;;;;;;;;;;6141065;28;20062;-82
2024/03/19 13:35:00;;;;;;;9.75;4.35;;;;;;;;;;6151744;28;20098;-82
2024/03/19 13:38:02;;;;;;;7.95;4.40;;;;;;;;;;6155516;28;20058;-81
2024/03/19 13:41:04;;;;;;;8.40;4.70;;;;;;;;;;6144305;28;20066;-81
2024/03/19 13:44:06;;;;;;;9.63;4.90;;;;;;;;;;6133906;28;20046;-81
2024/03/19 13:47:11;;;;;;;21.90;8.70;;;;;;;;;;6146365;28;20034;-81
2024/03/19 13:50:15;;;;;;;10.05;5.68;;;;;;;;;;6139335;28;20047;-81
2024/03/19 13:53:17;;;;;;;10.20;6.88;;;;;;;;;;6154156;28;20496;-82
2024/03/19 13:56:19;;;;;;;9.70;5.00;;;;;;;;;;6144908;28;20061;-82
2024/03/19 13:59:23;;;;;;;5.35;4.05;;;;;;;;;;6125840;28;20065;-83
2024/03/19 14:02:26;;;;;;;6.35;3.38;;;;;;;;;;6145606;28;20050;-82
2024/03/19 14:05:32;;;;;;;6.10;2.90;;;;;;;;;;6130930;28;20049;-82
2024/03/19 14:08:35;;;;;;;4.85;2.50;;;;;;;;;;6161593;28;20050;-82
2024/03/19 14:11:37;;;;;;;8.60;2.45;;;;;;;;;;6172291;28;20078;-81
2024/03/19 14:14:39;;;;;;;6.00;3.08;;;;;;;;;;6159073;28;20043;-82
2024/03/19 14:17:42;;;;;;;7.63;2.60;;;;;;;;;;6189130;28;20100;-82
2024/03/19 14:20:43;;;;;;;6.72;2.22;;;;;;;;;;6131702;28;20055;-82
2024/03/19 14:23:46;;;;;;;6.15;2.25;;;;;;;;;;6140461;28;20054;-81
2024/03/19 14:26:48;;;;;;;4.63;2.28;;;;;;;;;;6171622;28;20041;-82
2024/03/19 14:29:50;;;;;;;4.28;2.65;;;;;;;;;;6159054;28;20167;-81
2024/03/19 14:32:51;;;;;;;5.90;2.75;;;;;;;;;;6146084;28;20046;-82
2024/03/19 14:35:53;;;;;;;5.72;3.17;;;;;;;;;;6128315;28;20049;-81
2024/03/19 14:38:55;;;;;;;6.07;2.95;;;;;;;;;;6144738;28;20149;-81
2024/03/19 14:41:56;;;;;;;5.28;3.72;;;;;;;;;;6157235;28;20062;-81
2024/03/19 14:44:59;;;;;;;5.38;2.78;;;;;;;;;;6130356;28;20098;-80
2024/03/19 14:47:59;;;;;;;7.90;3.97;;;;;;;;;;6129503;28;20055;-81
2024/03/19 14:51:02;;;;;;;5.50;3.15;;;;;;;;;;6143401;28;20050;-82
2024/03/19 14:54:11;;;;;;;6.18;2.97;;;;;;;;;;6162465;28;20074;-82
2024/03/19 14:57:12;;;;;;;5.28;2.35;;;;;;;;;;6174142;28;20073;-80
2024/03/19 15:00:16;;;;;;;4.07;2.28;;;;;;;;;;6161196;28;20524;-81
2024/03/19 15:03:17;;;;;;;4.15;1.95;;;;;;;;;;6141804;28;20061;-82
2024/03/19 15:06:21;;;;;;;6.32;3.60;;;;;;;;;;6123653;28;20142;-82
2024/03/19 15:09:25;;;;;;;7.43;2.28;;;;;;;;;;6158033;28;20051;-82
2024/03/19 15:12:26;;;;;;;4.75;2.97;;;;;;;;;;6145674;28;20047;-82
2024/03/19 15:15:29;;;;;;;6.15;2.88;;;;;;;;;;6162693;28;20050;-82
2024/03/19 15:18:30;;;;;;;5.07;2.30;;;;;;;;;;6133168;28;20706;-81
2024/03/19 15:31:37;;;;;;;6.65;3.67;;;;;;;;;;6190941;28;20035;-80
2024/03/19 15:34:41;;;;;;;8.60;2.78;;;;;;;;;;6129483;28;20464;-81
2024/03/19 15:37:43;;;;;;;5.85;3.13;;;;;;;;;;6143313;28;20048;-82
2024/03/19 15:41:55;;;;;;;6.05;4.03;;;;;;;;;;6139527;28;20471;-81
2024/03/19 15:45:37;;;;;;;8.15;4.47;;;;;;;;;;6176829;28;20105;-82
2024/03/19 15:48:39;;;;;;;5.75;4.43;;;;;;;;;;6134310;28;20449;-81
2024/03/19 15:51:40;;;;;;;4.82;3.47;;;;;;;;;;6164016;28;20051;-80
2024/03/19 15:54:43;;;;;;;4.75;2.70;;;;;;;;;;6168162;28;20433;-82
2024/03/19 15:57:45;;;;;;;5.43;3.53;;;;;;;;;;6164423;28;20472;-80
2024/03/19 16:00:47;;;;;;;3.75;2.38;;;;;;;;;;6163083;28;20038;-81
2024/03/19 16:03:49;;;;;;;6.95;3.25;;;;;;;;;;6183467;28;20730;-81
2024/03/19 16:06:50;;;;;;;5.50;2.60;;;;;;;;;;6168062;28;20059;-81
2024/03/19 16:09:52;;;;;;;7.00;4.47;;;;;;;;;;6136753;28;20051;-82
2024/03/19 16:12:55;;;;;;;5.47;3.88;;;;;;;;;;6146098;28;20057;-81
2024/03/19 16:16:00;;;;;;;4.82;3.85;;;;;;;;;;6169816;28;20058;-81
2024/03/19 16:19:01;;;;;;;7.07;2.00;;;;;;;;;;6162871;28;20047;-81
2024/03/19 16:22:03;;;;;;;7.78;3.92;;;;;;;;;;6160508;28;20047;-81
2024/03/19 16:25:04;;;;;;;7.85;4.30;;;;;;;;;;6162232;28;20046;-80
2024/03/19 16:28:06;;;;;;;10.85;3.90;;;;;;;;;;6116728;28;20053;-81
2024/03/19 16:31:08;;;;;;;5.65;3.30;;;;;;;;;;6128811;28;20078;-81
2024/03/19 16:34:10;;;;;;;7.43;3.67;;;;;;;;;;6144239;28;20054;-80
2024/03/19 16:37:13;;;;;;;5.72;3.25;;;;;;;;;;6147227;28;20583;-80
2024/03/19 16:40:15;;;;;;;12.43;6.68;;;;;;;;;;6150555;28;20047;-80
2024/03/19 16:43:17;;;;;;;8.48;5.68;;;;;;;;;;6146679;28;20160;-80
2024/03/19 16:46:18;;;;;;;23.50;14.93;;;;;;;;;;6143754;28;20066;-82
2024/03/19 16:49:20;;;;;;;13.50;8.10;;;;;;;;;;6155853;28;20047;-81
2024/03/19 16:52:22;;;;;;;20.63;12.32;;;;;;;;;;6153914;28;20086;-80
2024/03/19 16:55:24;;;;;;;20.27;10.05;;;;;;;;;;6167694;28;20090;-81
2024/03/19 16:58:25;;;;;;;17.52;7.75;;;;;;;;;;6161048;28;20054;-80
2024/03/19 17:01:27;;;;;;;7.70;5.20;;;;;;;;;;6150469;28;20870;-81
2024/03/19 17:04:29;;;;;;;6.68;3.22;;;;;;;;;;6161612;28;20499;-80
2024/03/19 17:07:31;;;;;;;8.77;5.18;;;;;;;;;;6143981;28;20536;-80
2024/03/19 17:10:33;;;;;;;10.70;6.82;;;;;;;;;;6158810;28;20268;-80
2024/03/19 17:13:39;;;;;;;7.05;4.50;;;;;;;;;;6161806;28;20047;-80
2024/03/19 17:16:43;;;;;;;24.92;11.98;;;;;;;;;;6149423;28;20050;-80
2024/03/19 17:19:45;;;;;;;20.10;11.27;;;;;;;;;;6174078;28;20130;-80
2024/03/19 17:22:47;;;;;;;6.82;4.45;;;;;;;;;;6173062;28;20050;-79
2024/03/19 17:25:51;;;;;;;10.75;6.25;;;;;;;;;;6143129;28;20078;-80
2024/03/19 17:28:52;;;;;;;13.75;7.07;;;;;;;;;;6141925;28;20912;-80
2024/03/19 17:31:54;;;;;;;12.38;6.78;;;;;;;;;;6157350;28;20051;-80
2024/03/19 17:34:55;;;;;;;12.18;7.32;;;;;;;;;;6152926;28;20063;-81
2024/03/19 17:37:58;;;;;;;13.57;6.30;;;;;;;;;;6129879;28;20054;-81
2024/03/19 17:40:59;;;;;;;20.45;11.98;;;;;;;;;;6154706;28;20045;-80
2024/03/19 17:44:01;;;;;;;16.83;10.70;;;;;;;;;;6142142;28;20042;-81
2024/03/19 17:47:04;;;;;;;12.93;6.82;;;;;;;;;;6156621;28;20066;-81
2024/03/19 17:50:10;;;;;;;18.08;9.32;;;;;;;;;;6115993;28;20059;-81
2024/03/19 17:53:12;;;;;;;14.95;8.85;;;;;;;;;;6163664;28;20535;-81
2024/03/19 17:56:13;;;;;;;11.45;5.95;;;;;;;;;;6152961;28;20042;-80
2024/03/19 17:59:14;;;;;;;18.20;8.63;;;;;;;;;;6142511;28;20051;-80
2024/03/19 18:02:16;;;;;;;11.68;4.70;;;;;;;;;;6143614;28;20046;-81
2024/03/19 18:05:18;;;;;;;6.28;3.75;;;;;;;;;;6142444;28;20054;-80
2024/03/19 18:08:19;;;;;;;5.75;4.15;;;;;;;;;;6142185;28;20043;-81
2024/03/19 18:11:21;;;;;;;3.95;2.72;;;;;;;;;;6125306;28;20531;-80
2024/03/19 18:14:23;;;;;;;6.78;4.10;;;;;;;;;;6139799;28;20515;-80
2024/03/19 18:17:24;;;;;;;9.80;3.00;;;;;;;;;;6161596;28;20046;-81
2024/03/19 18:20:27;;;;;;;7.53;3.40;;;;;;;;;;6139868;28;20049;-81